sensor_id;sensor_type;location;lat;lon;timestamp;P1;durP1;ratioP1;P2;durP2;ratioP2
66129;SDS011;52930;51.464;11.764;2022-07-29T00:00:06;11.03;;;1.23;;
66129;SDS011;52930;51.464;11.764;2022-07-29T00:02:32;5.22;;;1.38;;
66129;SDS011;52930;51.464;11.764;2022-07-29T00:04:58;6.10;;;1.20;;
66129;SDS011;52930;51.464;11.764;2022-07-29T00:07:23;7.30;;;1.77;;
66129;SDS011;52930;51.464;11.764;2022-07-29T00:09:49;6.37;;;1.30;;
66129;SDS011;52930;51.464;11.764;2022-07-29T00:12:14;5.40;;;0.98;;
66129;SDS011;52930;51.464;11.764;2022-07-29T00:14:39;5.30;;;1.20;;
66129;SDS011;52930;51.464;11.764;2022-07-29T00:17:05;7.57;;;1.40;;
66129;SDS011;52930;51.464;11.764;2022-07-29T00:19:30;4.87;;;1.50;;
66129;SDS011;52930;51.464;11.764;2022-07-29T00:21:55;5.70;;;1.20;;
66129;SDS011;52930;51.464;11.764;2022-07-29T00:24:21;5.60;;;1.40;;
66129;SDS011;52930;51.464;11.764;2022-07-29T00:26:46;5.90;;;1.17;;
66129;SDS011;52930;51.464;11.764;2022-07-29T00:29:11;7.60;;;1.30;;
66129;SDS011;52930;51.464;11.764;2022-07-29T00:31:37;9.00;;;1.13;;
66129;SDS011;52930;51.464;11.764;2022-07-29T00:34:02;4.90;;;1.17;;
66129;SDS011;52930;51.464;11.764;2022-07-29T00:36:28;6.53;;;1.10;;
66129;SDS011;52930;51.464;11.764;2022-07-29T00:38:53;4.30;;;1.10;;
66129;SDS011;52930;51.464;11.764;2022-07-29T00:41:19;5.15;;;1.17;;
66129;SDS011;52930;51.464;11.764;2022-07-29T00:43:44;7.07;;;1.47;;
66129;SDS011;52930;51.464;11.764;2022-07-29T00:46:10;3.43;;;1.03;;
66129;SDS011;52930;51.464;11.764;2022-07-29T00:48:36;6.45;;;1.33;;
66129;SDS011;52930;51.464;11.764;2022-07-29T00:51:02;4.53;;;1.45;;
66129;SDS011;52930;51.464;11.764;2022-07-29T00:53:29;6.63;;;1.50;;
66129;SDS011;52930;51.464;11.764;2022-07-29T00:55:55;6.07;;;1.30;;
66129;SDS011;52930;51.464;11.764;2022-07-29T00:58:21;6.45;;;1.30;;
66129;SDS011;52930;51.464;11.764;2022-07-29T01:00:47;5.97;;;1.30;;
66129;SDS011;52930;51.464;11.764;2022-07-29T01:03:12;8.10;;;1.10;;
66129;SDS011;52930;51.464;11.764;2022-07-29T01:05:38;6.93;;;1.07;;
66129;SDS011;52930;51.464;11.764;2022-07-29T01:08:04;5.28;;;1.35;;
66129;SDS011;52930;51.464;11.764;2022-07-29T01:10:30;6.10;;;1.33;;
66129;SDS011;52930;51.464;11.764;2022-07-29T01:12:56;5.53;;;1.10;;
66129;SDS011;52930;51.464;11.764;2022-07-29T01:15:23;3.88;;;1.10;;
66129;SDS011;52930;51.464;11.764;2022-07-29T01:20:51;7.32;;;1.92;;
66129;SDS011;52930;51.464;11.764;2022-07-29T01:23:40;4.68;;;1.20;;
66129;SDS011;52930;51.464;11.764;2022-07-29T01:29:07;4.07;;;1.10;;
66129;SDS011;52930;51.464;11.764;2022-07-29T01:34:34;4.35;;;1.27;;
66129;SDS011;52930;51.464;11.764;2022-07-29T01:37:18;5.53;;;1.30;;
66129;SDS011;52930;51.464;11.764;2022-07-29T01:39:47;5.03;;;1.50;;
66129;SDS011;52930;51.464;11.764;2022-07-29T01:42:15;6.28;;;1.38;;
66129;SDS011;52930;51.464;11.764;2022-07-29T01:44:52;6.47;;;1.27;;
66129;SDS011;52930;51.464;11.764;2022-07-29T01:47:23;7.18;;;1.10;;
66129;SDS011;52930;51.464;11.764;2022-07-29T01:49:51;6.05;;;1.42;;
66129;SDS011;52930;51.464;11.764;2022-07-29T01:52:20;6.07;;;1.43;;
66129;SDS011;52930;51.464;11.764;2022-07-29T01:54:50;6.07;;;1.30;;
66129;SDS011;52930;51.464;11.764;2022-07-29T01:57:19;5.57;;;1.35;;
66129;SDS011;52930;51.464;11.764;2022-07-29T01:59:46;6.70;;;1.38;;
66129;SDS011;52930;51.464;11.764;2022-07-29T02:02:13;4.20;;;1.00;;
66129;SDS011;52930;51.464;11.764;2022-07-29T02:04:40;5.40;;;1.30;;
66129;SDS011;52930;51.464;11.764;2022-07-29T02:07:07;9.05;;;1.40;;
66129;SDS011;52930;51.464;11.764;2022-07-29T02:09:35;6.07;;;1.58;;
66129;SDS011;52930;51.464;11.764;2022-07-29T02:12:02;4.70;;;1.40;;
66129;SDS011;52930;51.464;11.764;2022-07-29T02:14:30;5.40;;;1.27;;
66129;SDS011;52930;51.464;11.764;2022-07-29T02:16:59;5.07;;;1.30;;
66129;SDS011;52930;51.464;11.764;2022-07-29T02:19:25;6.43;;;1.48;;
66129;SDS011;52930;51.464;11.764;2022-07-29T02:21:53;6.47;;;1.20;;
66129;SDS011;52930;51.464;11.764;2022-07-29T02:24:19;5.45;;;1.23;;
66129;SDS011;52930;51.464;11.764;2022-07-29T02:26:45;3.70;;;1.40;;
66129;SDS011;52930;51.464;11.764;2022-07-29T02:29:12;5.63;;;1.50;;
66129;SDS011;52930;51.464;11.764;2022-07-29T02:31:38;6.05;;;1.60;;
66129;SDS011;52930;51.464;11.764;2022-07-29T02:34:05;6.25;;;1.70;;
66129;SDS011;52930;51.464;11.764;2022-07-29T02:36:32;6.30;;;1.57;;
66129;SDS011;52930;51.464;11.764;2022-07-29T02:38:58;5.68;;;1.20;;
66129;SDS011;52930;51.464;11.764;2022-07-29T02:43:56;9.05;;;1.55;;
66129;SDS011;52930;51.464;11.764;2022-07-29T02:46:33;5.82;;;1.10;;
66129;SDS011;52930;51.464;11.764;2022-07-29T02:51:40;6.22;;;1.33;;
66129;SDS011;52930;51.464;11.764;2022-07-29T02:54:11;5.43;;;1.35;;
66129;SDS011;52930;51.464;11.764;2022-07-29T02:56:43;4.65;;;1.25;;
66129;SDS011;52930;51.464;11.764;2022-07-29T02:59:10;7.35;;;1.30;;
66129;SDS011;52930;51.464;11.764;2022-07-29T03:01:37;4.83;;;1.40;;
66129;SDS011;52930;51.464;11.764;2022-07-29T03:04:04;6.82;;;1.70;;
66129;SDS011;52930;51.464;11.764;2022-07-29T03:06:30;5.75;;;1.50;;
66129;SDS011;52930;51.464;11.764;2022-07-29T03:08:56;6.57;;;1.87;;
66129;SDS011;52930;51.464;11.764;2022-07-29T03:11:22;6.90;;;1.65;;
66129;SDS011;52930;51.464;11.764;2022-07-29T03:13:48;4.97;;;1.30;;
66129;SDS011;52930;51.464;11.764;2022-07-29T03:16:13;5.10;;;1.40;;
66129;SDS011;52930;51.464;11.764;2022-07-29T03:18:39;7.78;;;1.52;;
66129;SDS011;52930;51.464;11.764;2022-07-29T03:21:05;9.93;;;1.38;;
66129;SDS011;52930;51.464;11.764;2022-07-29T03:23:30;5.50;;;1.50;;
66129;SDS011;52930;51.464;11.764;2022-07-29T03:25:56;5.40;;;2.03;;
66129;SDS011;52930;51.464;11.764;2022-07-29T03:28:21;6.75;;;1.65;;
66129;SDS011;52930;51.464;11.764;2022-07-29T03:30:47;7.10;;;1.50;;
66129;SDS011;52930;51.464;11.764;2022-07-29T03:33:13;5.57;;;1.55;;
66129;SDS011;52930;51.464;11.764;2022-07-29T03:35:38;5.33;;;1.70;;
66129;SDS011;52930;51.464;11.764;2022-07-29T03:38:04;5.97;;;1.70;;
66129;SDS011;52930;51.464;11.764;2022-07-29T03:40:33;9.95;;;1.50;;
66129;SDS011;52930;51.464;11.764;2022-07-29T03:43:02;5.22;;;1.20;;
66129;SDS011;52930;51.464;11.764;2022-07-29T03:45:28;4.75;;;1.45;;
66129;SDS011;52930;51.464;11.764;2022-07-29T03:47:56;6.28;;;1.58;;
66129;SDS011;52930;51.464;11.764;2022-07-29T03:50:30;5.57;;;1.77;;
66129;SDS011;52930;51.464;11.764;2022-07-29T03:52:57;8.52;;;1.77;;
66129;SDS011;52930;51.464;11.764;2022-07-29T03:55:23;6.53;;;1.40;;
66129;SDS011;52930;51.464;11.764;2022-07-29T03:57:48;6.00;;;1.55;;
66129;SDS011;52930;51.464;11.764;2022-07-29T04:00:14;5.63;;;2.00;;
66129;SDS011;52930;51.464;11.764;2022-07-29T04:02:40;6.93;;;1.50;;
66129;SDS011;52930;51.464;11.764;2022-07-29T04:05:13;6.50;;;1.70;;
66129;SDS011;52930;51.464;11.764;2022-07-29T04:07:39;7.72;;;1.50;;
66129;SDS011;52930;51.464;11.764;2022-07-29T04:10:05;6.60;;;1.60;;
66129;SDS011;52930;51.464;11.764;2022-07-29T04:12:32;5.25;;;1.50;;
66129;SDS011;52930;51.464;11.764;2022-07-29T04:14:57;5.03;;;1.30;;
66129;SDS011;52930;51.464;11.764;2022-07-29T04:17:22;6.70;;;1.50;;
66129;SDS011;52930;51.464;11.764;2022-07-29T04:19:48;6.00;;;1.60;;
66129;SDS011;52930;51.464;11.764;2022-07-29T04:22:13;7.63;;;1.70;;
66129;SDS011;52930;51.464;11.764;2022-07-29T04:24:38;7.47;;;1.57;;
66129;SDS011;52930;51.464;11.764;2022-07-29T04:27:04;5.57;;;1.50;;
66129;SDS011;52930;51.464;11.764;2022-07-29T04:29:29;7.73;;;1.60;;
66129;SDS011;52930;51.464;11.764;2022-07-29T04:31:54;7.88;;;1.40;;
66129;SDS011;52930;51.464;11.764;2022-07-29T04:34:20;4.23;;;1.70;;
66129;SDS011;52930;51.464;11.764;2022-07-29T04:36:45;5.40;;;1.70;;
66129;SDS011;52930;51.464;11.764;2022-07-29T04:39:10;5.60;;;1.80;;
66129;SDS011;52930;51.464;11.764;2022-07-29T04:41:36;6.90;;;1.80;;
66129;SDS011;52930;51.464;11.764;2022-07-29T04:44:02;5.57;;;1.90;;
66129;SDS011;52930;51.464;11.764;2022-07-29T04:46:30;8.68;;;1.75;;
66129;SDS011;52930;51.464;11.764;2022-07-29T04:48:55;7.77;;;1.47;;
66129;SDS011;52930;51.464;11.764;2022-07-29T04:51:20;4.43;;;1.50;;
66129;SDS011;52930;51.464;11.764;2022-07-29T04:53:46;7.43;;;1.73;;
66129;SDS011;52930;51.464;11.764;2022-07-29T04:56:11;5.70;;;1.63;;
66129;SDS011;52930;51.464;11.764;2022-07-29T04:58:36;5.37;;;1.60;;
66129;SDS011;52930;51.464;11.764;2022-07-29T05:01:02;6.47;;;1.60;;
66129;SDS011;52930;51.464;11.764;2022-07-29T05:03:28;7.93;;;2.10;;
66129;SDS011;52930;51.464;11.764;2022-07-29T05:05:53;4.93;;;1.70;;
66129;SDS011;52930;51.464;11.764;2022-07-29T05:08:19;6.10;;;1.75;;
66129;SDS011;52930;51.464;11.764;2022-07-29T05:10:44;4.23;;;1.67;;
66129;SDS011;52930;51.464;11.764;2022-07-29T05:13:10;4.50;;;1.73;;
66129;SDS011;52930;51.464;11.764;2022-07-29T05:15:35;6.80;;;1.60;;
66129;SDS011;52930;51.464;11.764;2022-07-29T05:18:01;5.28;;;1.77;;
66129;SDS011;52930;51.464;11.764;2022-07-29T05:20:27;6.93;;;1.70;;
66129;SDS011;52930;51.464;11.764;2022-07-29T05:22:57;5.88;;;1.30;;
66129;SDS011;52930;51.464;11.764;2022-07-29T05:25:24;5.40;;;1.83;;
66129;SDS011;52930;51.464;11.764;2022-07-29T05:27:50;5.47;;;1.67;;
66129;SDS011;52930;51.464;11.764;2022-07-29T05:30:15;6.50;;;1.90;;
66129;SDS011;52930;51.464;11.764;2022-07-29T05:32:41;5.00;;;1.50;;
66129;SDS011;52930;51.464;11.764;2022-07-29T05:35:06;5.47;;;1.63;;
66129;SDS011;52930;51.464;11.764;2022-07-29T05:37:32;6.75;;;1.50;;
66129;SDS011;52930;51.464;11.764;2022-07-29T05:39:58;6.68;;;1.58;;
66129;SDS011;52930;51.464;11.764;2022-07-29T05:42:26;6.13;;;1.80;;
66129;SDS011;52930;51.464;11.764;2022-07-29T05:44:52;9.70;;;1.45;;
66129;SDS011;52930;51.464;11.764;2022-07-29T05:47:17;8.40;;;2.17;;
66129;SDS011;52930;51.464;11.764;2022-07-29T05:49:43;4.97;;;1.60;;
66129;SDS011;52930;51.464;11.764;2022-07-29T05:52:08;7.47;;;1.80;;
66129;SDS011;52930;51.464;11.764;2022-07-29T05:54:34;6.33;;;2.00;;
66129;SDS011;52930;51.464;11.764;2022-07-29T05:57:00;6.32;;;1.88;;
66129;SDS011;52930;51.464;11.764;2022-07-29T05:59:25;5.27;;;1.50;;
66129;SDS011;52930;51.464;11.764;2022-07-29T06:01:51;6.53;;;1.90;;
66129;SDS011;52930;51.464;11.764;2022-07-29T06:04:16;7.53;;;2.17;;
66129;SDS011;52930;51.464;11.764;2022-07-29T06:06:41;5.60;;;1.73;;
66129;SDS011;52930;51.464;11.764;2022-07-29T06:09:07;5.80;;;1.80;;
66129;SDS011;52930;51.464;11.764;2022-07-29T06:11:32;7.27;;;1.80;;
66129;SDS011;52930;51.464;11.764;2022-07-29T06:13:58;6.23;;;1.80;;
66129;SDS011;52930;51.464;11.764;2022-07-29T06:16:23;8.50;;;1.80;;
66129;SDS011;52930;51.464;11.764;2022-07-29T06:18:48;8.87;;;2.00;;
66129;SDS011;52930;51.464;11.764;2022-07-29T06:21:14;7.77;;;1.90;;
66129;SDS011;52930;51.464;11.764;2022-07-29T06:23:39;5.80;;;1.90;;
66129;SDS011;52930;51.464;11.764;2022-07-29T06:26:05;6.87;;;1.87;;
66129;SDS011;52930;51.464;11.764;2022-07-29T06:28:31;6.87;;;1.80;;
66129;SDS011;52930;51.464;11.764;2022-07-29T06:30:57;6.73;;;1.60;;
66129;SDS011;52930;51.464;11.764;2022-07-29T06:33:22;8.68;;;2.08;;
66129;SDS011;52930;51.464;11.764;2022-07-29T06:35:47;7.97;;;1.67;;
66129;SDS011;52930;51.464;11.764;2022-07-29T06:38:14;6.50;;;1.65;;
66129;SDS011;52930;51.464;11.764;2022-07-29T06:40:43;6.53;;;1.57;;
66129;SDS011;52930;51.464;11.764;2022-07-29T06:46:06;6.03;;;1.90;;
66129;SDS011;52930;51.464;11.764;2022-07-29T06:48:33;11.20;;;2.27;;
66129;SDS011;52930;51.464;11.764;2022-07-29T06:50:59;6.65;;;1.67;;
66129;SDS011;52930;51.464;11.764;2022-07-29T06:53:25;8.80;;;2.17;;
66129;SDS011;52930;51.464;11.764;2022-07-29T06:55:51;12.27;;;2.00;;
66129;SDS011;52930;51.464;11.764;2022-07-29T06:58:16;9.57;;;1.70;;
66129;SDS011;52930;51.464;11.764;2022-07-29T07:00:45;6.75;;;1.75;;
66129;SDS011;52930;51.464;11.764;2022-07-29T07:03:13;6.90;;;1.65;;
66129;SDS011;52930;51.464;11.764;2022-07-29T07:05:40;5.57;;;1.60;;
66129;SDS011;52930;51.464;11.764;2022-07-29T07:08:05;7.67;;;2.07;;
66129;SDS011;52930;51.464;11.764;2022-07-29T07:10:31;7.63;;;2.08;;
66129;SDS011;52930;51.464;11.764;2022-07-29T07:12:57;8.23;;;1.90;;
66129;SDS011;52930;51.464;11.764;2022-07-29T07:15:22;9.33;;;2.10;;
66129;SDS011;52930;51.464;11.764;2022-07-29T07:17:48;7.60;;;2.00;;
66129;SDS011;52930;51.464;11.764;2022-07-29T07:20:14;5.73;;;1.80;;
66129;SDS011;52930;51.464;11.764;2022-07-29T07:22:40;6.97;;;2.10;;
66129;SDS011;52930;51.464;11.764;2022-07-29T07:25:05;7.77;;;2.13;;
66129;SDS011;52930;51.464;11.764;2022-07-29T07:27:31;5.80;;;1.48;;
66129;SDS011;52930;51.464;11.764;2022-07-29T07:29:56;8.53;;;1.70;;
66129;SDS011;52930;51.464;11.764;2022-07-29T07:32:22;5.80;;;1.90;;
66129;SDS011;52930;51.464;11.764;2022-07-29T07:34:47;5.83;;;1.80;;
66129;SDS011;52930;51.464;11.764;2022-07-29T07:37:12;6.22;;;1.85;;
66129;SDS011;52930;51.464;11.764;2022-07-29T07:39:41;5.70;;;1.70;;
66129;SDS011;52930;51.464;11.764;2022-07-29T07:42:06;9.35;;;1.98;;
66129;SDS011;52930;51.464;11.764;2022-07-29T07:44:32;8.27;;;1.90;;
66129;SDS011;52930;51.464;11.764;2022-07-29T07:46:57;7.23;;;1.80;;
66129;SDS011;52930;51.464;11.764;2022-07-29T07:49:23;7.32;;;1.70;;
66129;SDS011;52930;51.464;11.764;2022-07-29T07:51:48;5.83;;;1.93;;
66129;SDS011;52930;51.464;11.764;2022-07-29T07:54:14;6.35;;;1.70;;
66129;SDS011;52930;51.464;11.764;2022-07-29T07:56:39;8.17;;;2.03;;
66129;SDS011;52930;51.464;11.764;2022-07-29T07:59:04;7.77;;;2.00;;
66129;SDS011;52930;51.464;11.764;2022-07-29T08:01:30;6.27;;;2.27;;
66129;SDS011;52930;51.464;11.764;2022-07-29T08:03:55;8.30;;;1.80;;
66129;SDS011;52930;51.464;11.764;2022-07-29T08:06:20;12.67;;;2.80;;
66129;SDS011;52930;51.464;11.764;2022-07-29T08:08:46;9.97;;;2.67;;
66129;SDS011;52930;51.464;11.764;2022-07-29T08:11:11;10.70;;;2.80;;
66129;SDS011;52930;51.464;11.764;2022-07-29T08:13:37;8.80;;;3.60;;
66129;SDS011;52930;51.464;11.764;2022-07-29T08:16:03;10.38;;;3.85;;
66129;SDS011;52930;51.464;11.764;2022-07-29T08:18:38;9.65;;;3.47;;
66129;SDS011;52930;51.464;11.764;2022-07-29T08:21:05;6.47;;;2.93;;
66129;SDS011;52930;51.464;11.764;2022-07-29T08:23:30;12.30;;;3.45;;
66129;SDS011;52930;51.464;11.764;2022-07-29T08:26:10;8.15;;;3.58;;
66129;SDS011;52930;51.464;11.764;2022-07-29T08:28:36;9.10;;;3.57;;
66129;SDS011;52930;51.464;11.764;2022-07-29T08:31:02;12.10;;;3.97;;
66129;SDS011;52930;51.464;11.764;2022-07-29T08:33:28;11.87;;;4.33;;
66129;SDS011;52930;51.464;11.764;2022-07-29T08:35:53;13.70;;;5.03;;
66129;SDS011;52930;51.464;11.764;2022-07-29T08:38:18;12.73;;;4.30;;
66129;SDS011;52930;51.464;11.764;2022-07-29T08:40:44;10.27;;;4.70;;
66129;SDS011;52930;51.464;11.764;2022-07-29T08:43:10;14.23;;;6.75;;
66129;SDS011;52930;51.464;11.764;2022-07-29T08:48:11;14.82;;;5.20;;
66129;SDS011;52930;51.464;11.764;2022-07-29T08:50:41;17.85;;;6.05;;
66129;SDS011;52930;51.464;11.764;2022-07-29T08:53:07;12.60;;;7.00;;
66129;SDS011;52930;51.464;11.764;2022-07-29T08:55:36;14.40;;;7.07;;
66129;SDS011;52930;51.464;11.764;2022-07-29T08:58:04;14.80;;;6.60;;
66129;SDS011;52930;51.464;11.764;2022-07-29T09:00:30;18.42;;;6.18;;
66129;SDS011;52930;51.464;11.764;2022-07-29T09:02:58;12.03;;;6.43;;
66129;SDS011;52930;51.464;11.764;2022-07-29T09:05:24;23.42;;;6.38;;
66129;SDS011;52930;51.464;11.764;2022-07-29T09:07:51;12.27;;;6.65;;
66129;SDS011;52930;51.464;11.764;2022-07-29T09:10:17;14.43;;;7.57;;
66129;SDS011;52930;51.464;11.764;2022-07-29T09:12:42;14.93;;;6.87;;
66129;SDS011;52930;51.464;11.764;2022-07-29T09:15:07;11.83;;;6.97;;
66129;SDS011;52930;51.464;11.764;2022-07-29T09:17:42;12.32;;;6.38;;
66129;SDS011;52930;51.464;11.764;2022-07-29T09:20:15;12.90;;;6.70;;
66129;SDS011;52930;51.464;11.764;2022-07-29T09:22:42;12.50;;;6.90;;
66129;SDS011;52930;51.464;11.764;2022-07-29T09:25:08;15.48;;;7.13;;
66129;SDS011;52930;51.464;11.764;2022-07-29T09:27:34;12.80;;;6.30;;
66129;SDS011;52930;51.464;11.764;2022-07-29T09:30:03;13.93;;;6.30;;
66129;SDS011;52930;51.464;11.764;2022-07-29T09:32:30;13.18;;;6.20;;
66129;SDS011;52930;51.464;11.764;2022-07-29T09:35:16;10.90;;;5.55;;
66129;SDS011;52930;51.464;11.764;2022-07-29T09:37:45;15.23;;;5.20;;
66129;SDS011;52930;51.464;11.764;2022-07-29T09:40:15;12.63;;;4.50;;
66129;SDS011;52930;51.464;11.764;2022-07-29T09:42:42;9.18;;;4.53;;
66129;SDS011;52930;51.464;11.764;2022-07-29T09:45:08;11.32;;;4.50;;
66129;SDS011;52930;51.464;11.764;2022-07-29T09:47:52;9.83;;;5.10;;
66129;SDS011;52930;51.464;11.764;2022-07-29T09:50:19;8.65;;;4.88;;
66129;SDS011;52930;51.464;11.764;2022-07-29T09:52:52;8.27;;;4.40;;
66129;SDS011;52930;51.464;11.764;2022-07-29T09:55:18;11.30;;;4.57;;
66129;SDS011;52930;51.464;11.764;2022-07-29T09:57:44;10.50;;;4.30;;
66129;SDS011;52930;51.464;11.764;2022-07-29T10:00:12;11.32;;;3.70;;
66129;SDS011;52930;51.464;11.764;2022-07-29T10:02:40;9.20;;;3.97;;
66129;SDS011;52930;51.464;11.764;2022-07-29T10:05:21;9.40;;;3.30;;
66129;SDS011;52930;51.464;11.764;2022-07-29T10:07:49;8.98;;;3.00;;
66129;SDS011;52930;51.464;11.764;2022-07-29T10:10:23;8.03;;;3.00;;
66129;SDS011;52930;51.464;11.764;2022-07-29T10:15:18;9.60;;;2.70;;
66129;SDS011;52930;51.464;11.764;2022-07-29T10:17:44;6.88;;;2.90;;
66129;SDS011;52930;51.464;11.764;2022-07-29T10:20:10;7.88;;;2.65;;
66129;SDS011;52930;51.464;11.764;2022-07-29T10:22:36;9.10;;;3.10;;
66129;SDS011;52930;51.464;11.764;2022-07-29T10:25:03;7.68;;;3.05;;
66129;SDS011;52930;51.464;11.764;2022-07-29T10:27:29;9.93;;;2.90;;
66129;SDS011;52930;51.464;11.764;2022-07-29T10:29:55;7.83;;;2.80;;
66129;SDS011;52930;51.464;11.764;2022-07-29T10:32:23;7.47;;;2.70;;
66129;SDS011;52930;51.464;11.764;2022-07-29T10:35:11;6.00;;;2.50;;
66129;SDS011;52930;51.464;11.764;2022-07-29T10:43:37;8.23;;;2.80;;
66129;SDS011;52930;51.464;11.764;2022-07-29T10:46:06;6.65;;;2.72;;
66129;SDS011;52930;51.464;11.764;2022-07-29T10:48:31;7.53;;;3.20;;
66129;SDS011;52930;51.464;11.764;2022-07-29T10:50:58;8.73;;;3.10;;
66129;SDS011;52930;51.464;11.764;2022-07-29T10:53:48;9.98;;;3.30;;
66129;SDS011;52930;51.464;11.764;2022-07-29T11:01:51;13.85;;;3.67;;
66129;SDS011;52930;51.464;11.764;2022-07-29T11:07:09;10.10;;;4.90;;
66129;SDS011;52930;51.464;11.764;2022-07-29T11:09:35;9.60;;;4.60;;
66129;SDS011;52930;51.464;11.764;2022-07-29T11:12:00;13.73;;;6.63;;
66129;SDS011;52930;51.464;11.764;2022-07-29T11:17:17;16.10;;;7.28;;
66129;SDS011;52930;51.464;11.764;2022-07-29T11:19:43;17.73;;;6.93;;
66129;SDS011;52930;51.464;11.764;2022-07-29T11:22:09;17.13;;;8.30;;
66129;SDS011;52930;51.464;11.764;2022-07-29T11:24:35;16.85;;;7.75;;
66129;SDS011;52930;51.464;11.764;2022-07-29T11:27:17;16.53;;;7.10;;
66129;SDS011;52930;51.464;11.764;2022-07-29T11:29:56;16.60;;;7.45;;
66129;SDS011;52930;51.464;11.764;2022-07-29T11:32:24;13.98;;;5.95;;
66129;SDS011;52930;51.464;11.764;2022-07-29T11:37:42;13.15;;;5.45;;
66129;SDS011;52930;51.464;11.764;2022-07-29T11:40:10;11.20;;;5.67;;
66129;SDS011;52930;51.464;11.764;2022-07-29T11:42:37;10.18;;;4.00;;
66129;SDS011;52930;51.464;11.764;2022-07-29T11:45:05;11.30;;;3.90;;
66129;SDS011;52930;51.464;11.764;2022-07-29T11:47:39;12.57;;;3.97;;
66129;SDS011;52930;51.464;11.764;2022-07-29T11:50:07;10.07;;;3.63;;
66129;SDS011;52930;51.464;11.764;2022-07-29T11:52:35;10.07;;;3.53;;
66129;SDS011;52930;51.464;11.764;2022-07-29T11:55:10;9.05;;;3.15;;
66129;SDS011;52930;51.464;11.764;2022-07-29T11:57:38;8.10;;;3.30;;
66129;SDS011;52930;51.464;11.764;2022-07-29T12:00:11;13.43;;;3.17;;
66129;SDS011;52930;51.464;11.764;2022-07-29T12:02:43;6.95;;;2.67;;
66129;SDS011;52930;51.464;11.764;2022-07-29T12:05:09;7.47;;;2.50;;
66129;SDS011;52930;51.464;11.764;2022-07-29T12:07:36;9.45;;;2.80;;
66129;SDS011;52930;51.464;11.764;2022-07-29T12:10:03;6.13;;;2.60;;
66129;SDS011;52930;51.464;11.764;2022-07-29T12:12:29;7.07;;;2.65;;
66129;SDS011;52930;51.464;11.764;2022-07-29T12:14:54;8.00;;;2.50;;
66129;SDS011;52930;51.464;11.764;2022-07-29T12:19:59;12.48;;;2.42;;
66129;SDS011;52930;51.464;11.764;2022-07-29T12:22:30;6.10;;;2.60;;
66129;SDS011;52930;51.464;11.764;2022-07-29T12:25:05;6.25;;;2.60;;
66129;SDS011;52930;51.464;11.764;2022-07-29T12:27:39;5.68;;;2.50;;
66129;SDS011;52930;51.464;11.764;2022-07-29T12:30:05;4.47;;;2.10;;
66129;SDS011;52930;51.464;11.764;2022-07-29T12:32:36;7.03;;;2.40;;
66129;SDS011;52930;51.464;11.764;2022-07-29T12:35:17;9.43;;;2.72;;
66129;SDS011;52930;51.464;11.764;2022-07-29T12:37:47;6.13;;;2.20;;
66129;SDS011;52930;51.464;11.764;2022-07-29T12:40:17;5.50;;;2.28;;
66129;SDS011;52930;51.464;11.764;2022-07-29T12:43:25;9.20;;;2.28;;
66129;SDS011;52930;51.464;11.764;2022-07-29T12:45:34;5.70;;;2.10;;
66129;SDS011;52930;51.464;11.764;2022-07-29T12:47:59;7.10;;;2.37;;
66129;SDS011;52930;51.464;11.764;2022-07-29T12:50:24;5.30;;;2.47;;
66129;SDS011;52930;51.464;11.764;2022-07-29T12:52:50;6.27;;;2.30;;
66129;SDS011;52930;51.464;11.764;2022-07-29T12:55:15;5.87;;;2.50;;
66129;SDS011;52930;51.464;11.764;2022-07-29T12:57:44;6.03;;;2.30;;
66129;SDS011;52930;51.464;11.764;2022-07-29T13:00:14;6.50;;;2.30;;
66129;SDS011;52930;51.464;11.764;2022-07-29T13:02:40;4.75;;;2.13;;
66129;SDS011;52930;51.464;11.764;2022-07-29T13:05:07;5.22;;;2.38;;
66129;SDS011;52930;51.464;11.764;2022-07-29T13:07:36;6.50;;;2.13;;
66129;SDS011;52930;51.464;11.764;2022-07-29T13:15:33;8.98;;;2.47;;
66129;SDS011;52930;51.464;11.764;2022-07-29T13:17:59;8.05;;;2.40;;
66129;SDS011;52930;51.464;11.764;2022-07-29T13:20:26;6.83;;;2.30;;
66129;SDS011;52930;51.464;11.764;2022-07-29T13:22:54;5.25;;;2.40;;
66129;SDS011;52930;51.464;11.764;2022-07-29T13:25:28;5.40;;;2.17;;
66129;SDS011;52930;51.464;11.764;2022-07-29T13:27:55;5.20;;;1.90;;
66129;SDS011;52930;51.464;11.764;2022-07-29T13:30:21;5.72;;;2.35;;
66129;SDS011;52930;51.464;11.764;2022-07-29T13:32:46;6.53;;;2.30;;
66129;SDS011;52930;51.464;11.764;2022-07-29T13:35:12;6.78;;;2.50;;
66129;SDS011;52930;51.464;11.764;2022-07-29T13:37:38;6.03;;;2.40;;
66129;SDS011;52930;51.464;11.764;2022-07-29T13:40:04;6.28;;;2.30;;
66129;SDS011;52930;51.464;11.764;2022-07-29T13:42:33;6.25;;;1.88;;
66129;SDS011;52930;51.464;11.764;2022-07-29T13:44:59;5.20;;;2.43;;
66129;SDS011;52930;51.464;11.764;2022-07-29T13:47:25;5.50;;;2.10;;
66129;SDS011;52930;51.464;11.764;2022-07-29T13:49:50;6.18;;;2.90;;
66129;SDS011;52930;51.464;11.764;2022-07-29T13:52:16;6.37;;;2.30;;
66129;SDS011;52930;51.464;11.764;2022-07-29T13:54:42;6.37;;;2.43;;
66129;SDS011;52930;51.464;11.764;2022-07-29T13:57:08;6.20;;;2.42;;
66129;SDS011;52930;51.464;11.764;2022-07-29T13:59:35;9.32;;;1.92;;
66129;SDS011;52930;51.464;11.764;2022-07-29T14:02:00;5.30;;;2.53;;
66129;SDS011;52930;51.464;11.764;2022-07-29T14:04:26;6.00;;;2.33;;
66129;SDS011;52930;51.464;11.764;2022-07-29T14:06:51;5.20;;;2.40;;
66129;SDS011;52930;51.464;11.764;2022-07-29T14:09:17;7.05;;;2.20;;
66129;SDS011;52930;51.464;11.764;2022-07-29T14:11:42;6.93;;;2.27;;
66129;SDS011;52930;51.464;11.764;2022-07-29T14:14:08;6.13;;;2.40;;
66129;SDS011;52930;51.464;11.764;2022-07-29T14:16:35;6.47;;;2.10;;
66129;SDS011;52930;51.464;11.764;2022-07-29T14:19:00;5.68;;;2.10;;
66129;SDS011;52930;51.464;11.764;2022-07-29T14:21:25;5.43;;;2.30;;
66129;SDS011;52930;51.464;11.764;2022-07-29T14:23:51;7.60;;;2.40;;
66129;SDS011;52930;51.464;11.764;2022-07-29T14:26:17;6.28;;;2.25;;
66129;SDS011;52930;51.464;11.764;2022-07-29T14:28:43;8.67;;;2.40;;
66129;SDS011;52930;51.464;11.764;2022-07-29T14:31:09;5.03;;;2.55;;
66129;SDS011;52930;51.464;11.764;2022-07-29T14:33:35;6.33;;;2.30;;
66129;SDS011;52930;51.464;11.764;2022-07-29T14:36:00;6.90;;;2.60;;
66129;SDS011;52930;51.464;11.764;2022-07-29T14:38:25;6.18;;;2.63;;
66129;SDS011;52930;51.464;11.764;2022-07-29T14:40:51;7.33;;;2.10;;
66129;SDS011;52930;51.464;11.764;2022-07-29T14:43:17;8.93;;;2.77;;
66129;SDS011;52930;51.464;11.764;2022-07-29T14:45:43;7.53;;;2.60;;
66129;SDS011;52930;51.464;11.764;2022-07-29T14:48:08;6.63;;;2.50;;
66129;SDS011;52930;51.464;11.764;2022-07-29T14:50:34;6.20;;;2.57;;
66129;SDS011;52930;51.464;11.764;2022-07-29T14:53:00;7.80;;;2.63;;
66129;SDS011;52930;51.464;11.764;2022-07-29T14:55:26;4.70;;;2.42;;
66129;SDS011;52930;51.464;11.764;2022-07-29T14:57:51;5.67;;;2.43;;
66129;SDS011;52930;51.464;11.764;2022-07-29T15:00:16;6.00;;;2.33;;
66129;SDS011;52930;51.464;11.764;2022-07-29T15:02:42;7.15;;;2.70;;
66129;SDS011;52930;51.464;11.764;2022-07-29T15:05:07;4.63;;;2.20;;
66129;SDS011;52930;51.464;11.764;2022-07-29T15:07:33;6.50;;;2.50;;
66129;SDS011;52930;51.464;11.764;2022-07-29T15:09:58;7.60;;;2.90;;
66129;SDS011;52930;51.464;11.764;2022-07-29T15:12:24;7.17;;;2.73;;
66129;SDS011;52930;51.464;11.764;2022-07-29T15:14:49;6.15;;;2.20;;
66129;SDS011;52930;51.464;11.764;2022-07-29T15:17:14;6.17;;;2.67;;
66129;SDS011;52930;51.464;11.764;2022-07-29T15:19:40;10.23;;;2.73;;
66129;SDS011;52930;51.464;11.764;2022-07-29T15:22:05;7.90;;;2.53;;